Terminal Aerodrome Forecast
Issued by NWS Rapid City, SD

Home | Current Version | Previous Version | Graphics & Text | Print | Product List | Glossary On
Versions: 1 2 3 4 5 6 7 8 9 10 11 12 13 14 15 16 17 18 19 20
000
FTUS43 KUNR 301028 AAC
TAFRAP
TAF AMD
KRAP 301028Z 3010/0106 33020G30KT P6SM BKN070
      TEMPO 3011/3013 5SM -SN BKN040
     FM301300 33022G32KT P6SM SCT025 BKN050
     FM301800 33024G35KT P6SM SCT050 BKN100
     FM010000 32012KT P6SM SCT100=

USA.gov is the U.S. government's official web portal to all federal, state and local government web resources and services.